Airfield :
LOGIN :

Register | Disclaimer

   EN    FR    IT 

 










Legend :    VFR   Marginal VFR   IFR   Intensive IFR   Very Intensive IFR
Visi :
Ceiling :
>= 8 km
>= 3000ft
5 to 8 km
1000 to 3000 ft
1500m to 5 km
500 to 1000 ft
800 to 1500m
200 to 500 ft
< 800m
< 200 ft
Symbols :   Thunderstorms  Fog  Heavy snow  Heavy precipitations  Wind > 20 kt
SIGMETs :     Misc.  Thunderstorms  Icing  Turbulence  Mountain Waves  Volcanic Ashes






- Airport Elevation : 779 ft
- IATA code : CMF


LFLB - Chambery / Aix-Les-Bains

CURRENT METAR :
  • 140600Z AUTO VRB01KT 3000 0800 R18/2500U R36/3500D BCFG FEW001 10/10 Q1017 TEMPO 0600 BCFG

EXPIRED METARs :
  • 140530Z AUTO 13004KT 8000 NSC 10/09 Q1017 TEMPO 0800 BCFG
  • 140500Z AUTO 17003KT 0700 0500 R18/0750U R36/4100U FG VV/// 10/09 Q1017 TEMPO 0800 BCFG BECMG NSC
  • 140430Z AUTO VRB02KT 0550 0400 R18/1100D R36/0550N FG FEW002 10/09 Q1017 TEMPO 0800 BCFG
  • 140400Z AUTO 18003KT 0900 0600 R18/2100U R36/1800U FG NSC 10/10 Q1017
  • 140330Z AUTO VRB02KT 6000 FEW003 11/11 Q1018

TAF TAF LFLB
Valid from the 14 at 06:00 until the 15 at 06:00 UTC


140500Z 1406/1506 VRB02KT CAVOK
PROB40
TEMPO 1406/1408 0600 BCFG
PROB40
TEMPO 1504/1506 18012KT 4000 RA SCT020 OVC060



MET'MAP, your aeronautical weather chart ! - Copyright ORBIFLY December 2007 - Disclaimer

ORBIFLY MET'MAP TEAM :

Programming & Development : Alexandra Zaïnal
Concept & Development : Baudouin d'Aumeries
Co-Development & Prog : Marc-Olivier Méhu
Technical & hardware support : Manuel Goepfert

Contact : metmap@orbifly.com




SOURCES & CREDITS :

   NOAA